Time;durP1;ratioP1;P1;durP2;ratioP2;P2;SDS_P1;SDS_P2;PMS_P1;PMS_P2;Temp;Humidity;BMP_temperature;BMP_pressure;BME280_temperature;BME280_humidity;BME280_pressure;Samples;Min_cycle;Max_cycle;Signal;HPM_P1;HPM_P2
2023/05/21 00:00:45;;;;;;;;;;;14.40;99.90;;;;;;5095234;28;19996;-69
2023/05/21 00:03:15;;;;;;;;;;;13.90;99.90;;;;;;5060709;28;20374;-79
2023/05/21 00:05:40;;;;;;;;;;;14.00;99.90;;;;;;5094406;28;19920;-80
2023/05/21 00:08:06;;;;;;;;;;;13.90;99.90;;;;;;5077241;28;19926;-77
2023/05/21 00:10:32;;;;;;;;;;;14.30;99.90;;;;;;5095211;28;20010;-77
2023/05/21 00:12:57;;;;;;;;;;;14.40;99.90;;;;;;5094906;28;20366;-68
2023/05/21 00:15:23;;;;;;;;;;;14.10;99.90;;;;;;5094989;28;19930;-76
2023/05/21 00:17:48;;;;;;;;;;;14.00;99.90;;;;;;5095453;28;19920;-81
2023/05/21 00:20:15;;;;;;;;;;;14.30;99.90;;;;;;5094802;28;19928;-79
2023/05/21 00:22:43;;;;;;;;;;;14.20;99.90;;;;;;5094779;28;19920;-78
2023/05/21 00:25:11;;;;;;;;;;;14.20;99.90;;;;;;5094762;28;20252;-80
2023/05/21 00:27:37;;;;;;;;;;;14.10;99.90;;;;;;5077179;28;20318;-77
2023/05/21 00:30:03;;;;;;;;;;;14.10;99.90;;;;;;5095037;28;19920;-80
2023/05/21 00:32:29;;;;;;;;;;;14.00;99.90;;;;;;5094604;28;19920;-73
2023/05/21 00:34:55;;;;;;;;;;;13.80;99.90;;;;;;5103315;28;19927;-83
2023/05/21 00:37:20;;;;;;;;;;;13.80;99.90;;;;;;5085604;28;20019;-78
2023/05/21 00:39:46;;;;;;;;;;;13.60;99.90;;;;;;5097859;28;19998;-84
2023/05/21 00:42:16;;;;;;;;;;;13.90;99.90;;;;;;5076708;28;19986;-81
2023/05/21 00:44:44;;;;;;;;;;;13.70;99.90;;;;;;5076819;28;20352;-82
2023/05/21 00:47:11;;;;;;;;;;;14.20;99.90;;;;;;5095389;28;20014;-73
2023/05/21 00:49:36;;;;;;;;;;;14.20;99.90;;;;;;5076702;28;19927;-82
2023/05/21 00:52:02;;;;;;;;;;;14.20;99.90;;;;;;5094118;28;19919;-79
2023/05/21 00:54:29;;;;;;;;;;;13.60;99.90;;;;;;5094405;28;20014;-80
2023/05/21 00:56:55;;;;;;;;;;;13.90;99.90;;;;;;5094327;28;19973;-78
2023/05/21 00:59:22;;;;;;;;;;;14.10;99.90;;;;;;5093890;28;20502;-77
2023/05/21 01:01:54;;;;;;;;;;;13.40;99.90;;;;;;5094151;28;19920;-78
2023/05/21 01:04:22;;;;;;;;;;;14.20;99.90;;;;;;5094488;28;19989;-80
2023/05/21 01:06:48;;;;;;;;;;;14.00;99.90;;;;;;5076857;28;20382;-75
2023/05/21 01:09:14;;;;;;;;;;;13.90;99.90;;;;;;5094959;28;19932;-78
2023/05/21 01:11:49;;;;;;;;;;;14.30;99.90;;;;;;5076255;28;20318;-77
2023/05/21 01:14:15;;;;;;;;;;;13.70;99.90;;;;;;5094658;28;19927;-82
2023/05/21 01:16:42;;;;;;;;;;;14.20;99.90;;;;;;5094423;28;19920;-78
2023/05/21 01:19:10;;;;;;;;;;;13.20;99.90;;;;;;5076218;28;19920;-74
2023/05/21 01:21:40;;;;;;;;;;;14.00;99.90;;;;;;5094439;28;20010;-82
2023/05/21 01:24:06;;;;;;;;;;;14.20;99.90;;;;;;5093852;28;19927;-74
2023/05/21 01:26:37;;;;;;;;;;;14.20;99.90;;;;;;5093888;28;19919;-79
2023/05/21 01:29:05;;;;;;;;;;;13.50;99.90;;;;;;5093833;28;19925;-76
2023/05/21 01:31:40;;;;;;;;;;;14.50;99.90;;;;;;5094259;28;20021;-79
2023/05/21 01:34:09;;;;;;;;;;;13.40;99.90;;;;;;5094401;28;19920;-76
2023/05/21 01:36:39;;;;;;;;;;;14.10;99.90;;;;;;5093961;28;19920;-77
2023/05/21 01:39:11;;;;;;;;;;;14.00;99.90;;;;;;5094385;28;19920;-78
2023/05/21 01:41:39;;;;;;;;;;;13.90;99.90;;;;;;5093692;28;20015;-76
2023/05/21 01:44:06;;;;;;;;;;;13.50;99.90;;;;;;5075675;28;19927;-80
2023/05/21 01:46:33;;;;;;;;;;;14.00;99.90;;;;;;5075911;28;19920;-79
2023/05/21 01:48:59;;;;;;;;;;;13.10;99.90;;;;;;5093663;28;19927;-77
2023/05/21 01:51:25;;;;;;;;;;;13.20;99.90;;;;;;5093594;28;20018;-78
2023/05/21 01:53:50;;;;;;;;;;;14.20;99.90;;;;;;5094433;28;19919;-77
2023/05/21 01:56:16;;;;;;;;;;;13.80;99.90;;;;;;5075846;28;20276;-74
2023/05/21 01:58:42;;;;;;;;;;;13.00;99.90;;;;;;5093497;28;19920;-76
2023/05/21 02:01:08;;;;;;;;;;;13.40;99.90;;;;;;5075479;28;20318;-76
2023/05/21 02:03:34;;;;;;;;;;;13.50;99.90;;;;;;5093512;28;19924;-82
2023/05/21 02:05:59;;;;;;;;;;;13.10;99.90;;;;;;5075973;28;19942;-81
2023/05/21 02:08:26;;;;;;;;;;;13.50;99.90;;;;;;5093457;28;19943;-74
2023/05/21 02:10:51;;;;;;;;;;;13.80;99.90;;;;;;5075510;28;20008;-77
2023/05/21 02:13:19;;;;;;;;;;;14.10;99.90;;;;;;5093397;28;20362;-79
2023/05/21 02:15:45;;;;;;;;;;;14.00;99.90;;;;;;5093715;28;20276;-80
2023/05/21 02:18:15;;;;;;;;;;;13.40;99.90;;;;;;5093346;28;19923;-78
2023/05/21 02:20:41;;;;;;;;;;;13.40;99.90;;;;;;5093379;28;19920;-80
2023/05/21 02:23:07;;;;;;;;;;;13.40;99.90;;;;;;5093260;28;19967;-80
2023/05/21 02:25:33;;;;;;;;;;;13.30;99.90;;;;;;5093251;28;19942;-76
2023/05/21 02:27:59;;;;;;;;;;;14.00;99.90;;;;;;5093290;28;19981;-76
2023/05/21 02:30:25;;;;;;;;;;;13.60;99.90;;;;;;5099973;28;19978;-74
2023/05/21 02:32:51;;;;;;;;;;;13.00;99.90;;;;;;5084229;28;19920;-80
2023/05/21 02:35:16;;;;;;;;;;;12.40;99.90;;;;;;5101121;28;19919;-79
2023/05/21 02:37:42;;;;;;;;;;;13.20;99.90;;;;;;5096829;28;20007;-80
2023/05/21 02:40:11;;;;;;;;;;;13.90;99.90;;;;;;5096896;28;20248;-78
2023/05/21 02:42:38;;;;;;;;;;;13.80;99.90;;;;;;5096842;28;19920;-80
2023/05/21 02:45:10;;;;;;;;;;;13.60;99.90;;;;;;5096766;28;19924;-79
2023/05/21 02:47:37;;;;;;;;;;;13.70;99.90;;;;;;5096707;28;19920;-74
2023/05/21 02:50:04;;;;;;;;;;;13.30;99.90;;;;;;5097115;28;20253;-77
2023/05/21 02:52:30;;;;;;;;;;;13.10;99.90;;;;;;5096468;28;19928;-75
2023/05/21 02:54:55;;;;;;;;;;;13.00;99.90;;;;;;5096463;28;19920;-78
2023/05/21 02:57:21;;;;;;;;;;;13.60;99.90;;;;;;5096491;28;20018;-78
2023/05/21 02:59:46;;;;;;;;;;;13.00;99.90;;;;;;5096354;28;19943;-76
2023/05/21 03:02:12;;;;;;;;;;;13.50;99.90;;;;;;5096001;28;20007;-75
2023/05/21 03:04:44;;;;;;;;;;;12.50;99.90;;;;;;5096237;28;19919;-82
2023/05/21 03:07:14;;;;;;;;;;;13.80;99.90;;;;;;5096567;28;19920;-77
2023/05/21 03:09:42;;;;;;;;;;;13.60;99.90;;;;;;5096204;28;20019;-74
2023/05/21 03:12:08;;;;;;;;;;;12.80;99.90;;;;;;5096075;28;20015;-73
2023/05/21 03:14:34;;;;;;;;;;;12.30;99.90;;;;;;5096110;28;19971;-74
2023/05/21 03:17:02;;;;;;;;;;;13.30;99.90;;;;;;5095985;28;19920;-74
2023/05/21 03:19:29;;;;;;;;;;;12.70;99.90;;;;;;5095943;28;19920;-74
2023/05/21 03:21:55;;;;;;;;;;;12.80;99.90;;;;;;5077847;28;19919;-75
2023/05/21 03:24:20;;;;;;;;;;;12.40;99.90;;;;;;5095890;28;19955;-76
2023/05/21 03:26:47;;;;;;;;;;;13.00;99.90;;;;;;5095836;28;20352;-75
2023/05/21 03:29:12;;;;;;;;;;;13.40;99.90;;;;;;5095854;28;19920;-75
2023/05/21 03:31:38;;;;;;;;;;;13.50;99.90;;;;;;5095648;28;19972;-78
2023/05/21 03:34:03;;;;;;;;;;;12.30;99.90;;;;;;5095721;28;20002;-76
2023/05/21 03:36:30;;;;;;;;;;;12.80;99.90;;;;;;5095679;28;19975;-76
2023/05/21 03:38:55;;;;;;;;;;;12.10;99.90;;;;;;5096183;28;19920;-78
2023/05/21 03:41:21;;;;;;;;;;;12.70;99.90;;;;;;5094990;28;19920;-75
2023/05/21 03:43:46;;;;;;;;;;;13.20;99.90;;;;;;5096024;28;20344;-75
2023/05/21 03:46:12;;;;;;;;;;;12.60;99.90;;;;;;5095965;28;19939;-74
2023/05/21 03:48:37;;;;;;;;;;;13.40;99.90;;;;;;5095112;28;19923;-75
2023/05/21 03:51:03;;;;;;;;;;;14.60;99.90;;;;;;5077366;28;19979;-76
2023/05/21 03:53:28;;;;;;;;;;;12.80;99.90;;;;;;5095340;28;20273;-74
2023/05/21 03:55:54;;;;;;;;;;;12.50;99.90;;;;;;5077197;28;20015;-74
2023/05/21 03:58:23;;;;;;;;;;;12.20;99.90;;;;;;5095226;28;20030;-73
2023/05/21 04:00:49;;;;;;;;;;;13.50;99.90;;;;;;5095092;28;19920;-73
2023/05/21 04:03:14;;;;;;;;;;;13.50;99.90;;;;;;5095130;28;19920;-74
2023/05/21 04:05:41;;;;;;;;;;;13.20;99.90;;;;;;5076943;28;19919;-73
2023/05/21 04:08:07;;;;;;;;;;;12.20;99.90;;;;;;5077961;28;19920;-75
2023/05/21 04:10:33;;;;;;;;;;;13.10;99.90;;;;;;5094873;28;19920;-77
2023/05/21 04:12:58;;;;;;;;;;;12.70;99.90;;;;;;5095472;28;19920;-75
2023/05/21 04:15:24;;;;;;;;;;;13.00;99.90;;;;;;5094863;28;19920;-74
2023/05/21 04:17:51;;;;;;;;;;;12.80;99.90;;;;;;5077041;28;19970;-73
2023/05/21 04:20:16;;;;;;;;;;;13.60;99.90;;;;;;5095424;28;19927;-74
2023/05/21 04:22:42;;;;;;;;;;;12.90;99.90;;;;;;5094690;28;19920;-73
2023/05/21 04:25:08;;;;;;;;;;;13.50;99.90;;;;;;5095339;28;19971;-76
2023/05/21 04:27:34;;;;;;;;;;;13.10;99.90;;;;;;5095262;28;19970;-74
2023/05/21 04:29:59;;;;;;;;;;;12.30;99.90;;;;;;5095449;28;19924;-73
2023/05/21 04:32:27;;;;;;;;;;;12.70;99.90;;;;;;5076115;28;19920;-73
2023/05/21 04:34:52;;;;;;;;;;;13.00;99.90;;;;;;5094568;28;19969;-73
2023/05/21 04:37:18;;;;;;;;;;;12.80;99.90;;;;;;5094345;28;19920;-73
2023/05/21 04:39:45;;;;;;;;;;;12.60;99.90;;;;;;5094435;28;20326;-72
2023/05/21 04:42:11;;;;;;;;;;;12.90;99.90;;;;;;5094452;28;19920;-76
2023/05/21 04:44:37;;;;;;;;;;;12.60;99.90;;;;;;5094346;28;19930;-73
2023/05/21 04:47:03;;;;;;;;;;;13.40;99.90;;;;;;5095092;28;19942;-74
2023/05/21 04:49:28;;;;;;;;;;;12.80;99.90;;;;;;5094817;28;19920;-76
2023/05/21 04:51:54;;;;;;;;;;;12.40;99.90;;;;;;5075761;28;19927;-77
2023/05/21 04:54:20;;;;;;;;;;;12.90;99.90;;;;;;5059707;28;19920;-75
2023/05/21 04:56:46;;;;;;;;;;;13.80;99.90;;;;;;5094153;28;19920;-71
2023/05/21 04:59:12;;;;;;;;;;;12.70;99.90;;;;;;5094136;28;19927;-70
2023/05/21 05:01:38;;;;;;;;;;;13.40;99.90;;;;;;5076332;28;19920;-74
2023/05/21 05:04:03;;;;;;;;;;;13.00;99.90;;;;;;5094065;28;20304;-76
2023/05/21 05:06:29;;;;;;;;;;;13.70;99.90;;;;;;5075928;28;20010;-75
2023/05/21 05:08:55;;;;;;;;;;;13.80;99.90;;;;;;5094039;28;20286;-73
2023/05/21 05:11:21;;;;;;;;;;;13.00;99.90;;;;;;5094722;28;20015;-73
2023/05/21 05:13:46;;;;;;;;;;;13.10;99.90;;;;;;5093962;28;19919;-72
2023/05/21 05:16:13;;;;;;;;;;;13.10;99.90;;;;;;5076158;28;19943;-74
2023/05/21 05:18:39;;;;;;;;;;;13.60;99.90;;;;;;5093931;28;19919;-73
2023/05/21 05:21:04;;;;;;;;;;;13.30;99.90;;;;;;5094335;28;19942;-76
2023/05/21 05:23:30;;;;;;;;;;;13.30;99.90;;;;;;5093602;28;19989;-71
2023/05/21 05:25:56;;;;;;;;;;;13.60;99.90;;;;;;5094608;28;19920;-72
2023/05/21 05:28:21;;;;;;;;;;;13.10;99.90;;;;;;5094320;28;20413;-72
2023/05/21 05:30:47;;;;;;;;;;;12.70;99.90;;;;;;5093715;28;19920;-73
2023/05/21 05:33:12;;;;;;;;;;;13.10;99.90;;;;;;5093833;28;19926;-72
2023/05/21 05:35:38;;;;;;;;;;;12.90;99.90;;;;;;5093763;28;19920;-73
2023/05/21 05:38:04;;;;;;;;;;;13.10;99.90;;;;;;5093417;28;19924;-71
2023/05/21 05:40:29;;;;;;;;;;;13.30;99.90;;;;;;5093714;28;19920;-71
2023/05/21 05:42:55;;;;;;;;;;;13.60;99.90;;;;;;5093633;28;20339;-71
2023/05/21 05:45:20;;;;;;;;;;;13.30;99.90;;;;;;5093616;28;19926;-71
2023/05/21 05:47:46;;;;;;;;;;;13.80;99.90;;;;;;5093618;28;19931;-75
2023/05/21 05:50:11;;;;;;;;;;;13.60;99.90;;;;;;5075875;28;19920;-71
2023/05/21 05:52:37;;;;;;;;;;;14.20;99.90;;;;;;5093436;28;20280;-72
2023/05/21 05:55:03;;;;;;;;;;;13.90;99.90;;;;;;5093512;28;19919;-72
2023/05/21 05:57:28;;;;;;;;;;;14.20;99.90;;;;;;5093516;28;19970;-74
2023/05/21 05:59:55;;;;;;;;;;;14.30;99.90;;;;;;5093562;28;19923;-72
2023/05/21 06:02:20;;;;;;;;;;;14.20;99.90;;;;;;5093449;28;19920;-72
2023/05/21 06:04:46;;;;;;;;;;;14.20;99.90;;;;;;5096675;28;20386;-72
2023/05/21 06:07:11;;;;;;;;;;;14.30;99.90;;;;;;5097331;28;20386;-75
2023/05/21 06:09:37;;;;;;;;;;;13.90;99.90;;;;;;5098080;28;19919;-73
2023/05/21 06:12:06;;;;;;;;;;;14.30;99.90;;;;;;5097763;28;19924;-72
2023/05/21 06:14:31;;;;;;;;;;;14.30;99.90;;;;;;5097243;28;20006;-71
2023/05/21 06:16:57;;;;;;;;;;;14.50;99.90;;;;;;5097379;28;20364;-75
2023/05/21 06:19:22;;;;;;;;;;;14.10;99.90;;;;;;5097094;28;19927;-71
2023/05/21 06:21:49;;;;;;;;;;;14.30;99.90;;;;;;5095932;28;20280;-71
2023/05/21 06:24:14;;;;;;;;;;;14.20;99.90;;;;;;5096928;28;19927;-73
2023/05/21 06:26:40;;;;;;;;;;;13.70;99.90;;;;;;5096953;28;19920;-72
2023/05/21 06:29:06;;;;;;;;;;;14.20;99.90;;;;;;5079772;28;19923;-73
2023/05/21 06:31:32;;;;;;;;;;;14.20;99.90;;;;;;5097595;28;19920;-73
2023/05/21 06:33:58;;;;;;;;;;;13.90;99.90;;;;;;5096832;28;19927;-74
2023/05/21 06:36:28;;;;;;;;;;;14.00;99.90;;;;;;5096661;28;19976;-72
2023/05/21 06:38:56;;;;;;;;;;;14.80;99.90;;;;;;5097370;28;19924;-73
2023/05/21 06:41:22;;;;;;;;;;;14.50;99.90;;;;;;5096658;28;20375;-71
2023/05/21 06:43:48;;;;;;;;;;;14.40;99.90;;;;;;5096646;28;19927;-74
2023/05/21 06:46:13;;;;;;;;;;;14.00;99.90;;;;;;5096132;28;20028;-73
2023/05/21 06:48:39;;;;;;;;;;;14.60;99.90;;;;;;5096463;28;19920;-76
2023/05/21 06:51:04;;;;;;;;;;;14.30;99.90;;;;;;5078142;28;19920;-74
2023/05/21 06:53:30;;;;;;;;;;;14.30;99.90;;;;;;5096526;28;19966;-67
2023/05/21 06:55:56;;;;;;;;;;;15.10;99.90;;;;;;5096974;28;20356;-70
2023/05/21 06:58:21;;;;;;;;;;;14.40;99.90;;;;;;5096350;28;19966;-71
2023/05/21 07:00:47;;;;;;;;;;;14.60;99.90;;;;;;5096040;28;19920;-73
2023/05/21 07:03:13;;;;;;;;;;;14.70;99.90;;;;;;5096338;28;19974;-72
2023/05/21 07:05:38;;;;;;;;;;;15.20;99.90;;;;;;5096273;28;19920;-72
2023/05/21 07:08:04;;;;;;;;;;;15.10;99.90;;;;;;5096209;28;20287;-73
2023/05/21 07:10:30;;;;;;;;;;;15.30;99.90;;;;;;5096114;28;19927;-73
2023/05/21 07:12:55;;;;;;;;;;;15.50;99.90;;;;;;5096396;28;19963;-70
2023/05/21 07:15:21;;;;;;;;;;;15.30;99.90;;;;;;5095864;28;20224;-70
2023/05/21 07:17:46;;;;;;;;;;;15.20;99.90;;;;;;5096025;28;19920;-72
2023/05/21 07:20:12;;;;;;;;;;;15.30;99.90;;;;;;5095989;28;19927;-72
2023/05/21 07:22:38;;;;;;;;;;;15.70;99.90;;;;;;5095975;28;20021;-72
2023/05/21 07:25:04;;;;;;;;;;;15.80;99.90;;;;;;5095907;28;19932;-73
2023/05/21 07:27:30;;;;;;;;;;;15.90;99.90;;;;;;5095893;28;19920;-73
2023/05/21 07:29:56;;;;;;;;;;;16.20;99.90;;;;;;5077284;28;20295;-71
2023/05/21 07:32:21;;;;;;;;;;;15.70;99.90;;;;;;5095661;28;20022;-67
2023/05/21 07:34:47;;;;;;;;;;;15.90;99.90;;;;;;5096191;28;20340;-70
2023/05/21 07:37:13;;;;;;;;;;;16.10;99.90;;;;;;5095367;28;20288;-68
2023/05/21 07:39:38;;;;;;;;;;;15.90;99.90;;;;;;5095492;28;19920;-68
2023/05/21 07:42:04;;;;;;;;;;;15.90;99.90;;;;;;5095195;28;19927;-67
2023/05/21 07:44:30;;;;;;;;;;;16.00;99.90;;;;;;5095409;28;20011;-70
2023/05/21 07:46:56;;;;;;;;;;;16.00;99.90;;;;;;5077671;28;20393;-71
2023/05/21 07:49:22;;;;;;;;;;;16.10;99.90;;;;;;5095406;28;19969;-73
2023/05/21 07:51:47;;;;;;;;;;;15.50;99.90;;;;;;5095171;28;19942;-70
2023/05/21 07:54:13;;;;;;;;;;;16.10;99.90;;;;;;5095068;28;19924;-71
2023/05/21 07:56:38;;;;;;;;;;;16.20;99.90;;;;;;5095111;28;19920;-67
2023/05/21 07:59:04;;;;;;;;;;;16.10;99.90;;;;;;5094960;28;20372;-72
2023/05/21 08:01:30;;;;;;;;;;;15.90;99.90;;;;;;5094966;28;19927;-67
2023/05/21 08:03:55;;;;;;;;;;;16.20;99.90;;;;;;5095283;28;19919;-67
2023/05/21 08:06:23;;;;;;;;;;;15.90;99.90;;;;;;5094753;28;20280;-70
2023/05/21 08:08:48;;;;;;;;;;;15.50;99.90;;;;;;5094994;28;19920;-69
2023/05/21 08:11:14;;;;;;;;;;;15.40;99.90;;;;;;5094557;28;19924;-69
2023/05/21 08:13:39;;;;;;;;;;;15.50;99.90;;;;;;5094865;28;19942;-69
2023/05/21 08:16:05;;;;;;;;;;;15.40;99.90;;;;;;5094832;28;19920;-69
2023/05/21 08:18:31;;;;;;;;;;;15.00;99.90;;;;;;5094841;28;19963;-67
2023/05/21 08:20:57;;;;;;;;;;;15.60;99.90;;;;;;5095531;28;19920;-70
2023/05/21 08:23:23;;;;;;;;;;;15.60;99.90;;;;;;5095269;28;20015;-71
2023/05/21 08:25:48;;;;;;;;;;;15.60;99.90;;;;;;5093890;28;19959;-70
2023/05/21 08:28:14;;;;;;;;;;;15.30;99.90;;;;;;5094415;28;19924;-70
2023/05/21 08:30:40;;;;;;;;;;;15.30;99.90;;;;;;5094571;28;19920;-71
2023/05/21 08:33:05;;;;;;;;;;;15.00;99.90;;;;;;5094341;28;20364;-69
2023/05/21 08:35:31;;;;;;;;;;;15.20;99.90;;;;;;5076803;28;19920;-70
2023/05/21 08:37:57;;;;;;;;;;;15.30;99.90;;;;;;5094256;28;19927;-69
2023/05/21 08:40:23;;;;;;;;;;;15.00;99.90;;;;;;5076697;28;19924;-67
2023/05/21 08:42:49;;;;;;;;;;;15.40;99.90;;;;;;5094405;28;19920;-69
2023/05/21 08:45:18;;;;;;;;;;;14.90;99.90;;;;;;5094392;28;20276;-69
2023/05/21 08:47:45;;;;;;;;;;;15.10;99.90;;;;;;5094318;28;19931;-68
2023/05/21 08:50:15;;;;;;;;;;;15.10;99.90;;;;;;5094885;28;19920;-68
2023/05/21 08:52:41;;;;;;;;;;;15.00;99.90;;;;;;5094219;28;19942;-68
2023/05/21 08:55:07;;;;;;;;;;;15.40;99.90;;;;;;5076341;28;19919;-68
2023/05/21 08:57:33;;;;;;;;;;;15.40;99.90;;;;;;5094413;28;19919;-68
2023/05/21 09:00:00;;;;;;;;;;;15.20;99.90;;;;;;5094286;28;20330;-71
2023/05/21 09:02:26;;;;;;;;;;;15.70;99.90;;;;;;5094116;28;19966;-70
2023/05/21 09:04:56;;;;;;;;;;;15.70;99.90;;;;;;5094064;28;20007;-69
2023/05/21 09:07:27;;;;;;;;;;;15.60;99.90;;;;;;5094836;28;19923;-69
2023/05/21 09:10:01;;;;;;;;;;;15.20;99.90;;;;;;5094552;28;19927;-72
2023/05/21 09:12:26;;;;;;;;;;;15.60;99.90;;;;;;5094183;28;19920;-69
2023/05/21 09:14:52;;;;;;;;;;;15.20;99.90;;;;;;5093137;28;19923;-72
2023/05/21 09:17:19;;;;;;;;;;;15.20;99.90;;;;;;5093325;28;20053;-69
2023/05/21 09:20:06;;;;;;;;;;;14.90;99.90;;;;;;5093809;28;19931;-69
2023/05/21 09:22:31;;;;;;;;;;;15.30;99.90;;;;;;5093786;28;19920;-71
2023/05/21 09:24:57;;;;;;;;;;;15.30;99.90;;;;;;5093432;28;19920;-69
2023/05/21 09:27:23;;;;;;;;;;;15.10;99.90;;;;;;5093785;28;19920;-71
2023/05/21 09:29:48;;;;;;;;;;;15.40;99.90;;;;;;5093656;28;19963;-70
2023/05/21 09:32:16;;;;;;;;;;;15.50;99.90;;;;;;5093356;28;19916;-71
2023/05/21 09:34:41;;;;;;;;;;;15.80;99.90;;;;;;5093479;28;20003;-70
2023/05/21 09:37:08;;;;;;;;;;;15.60;99.90;;;;;;5075545;28;19990;-70
2023/05/21 09:39:34;;;;;;;;;;;15.70;99.90;;;;;;5096262;28;19931;-70
2023/05/21 09:42:00;;;;;;;;;;;16.00;99.90;;;;;;5097893;28;19920;-69
2023/05/21 09:44:25;;;;;;;;;;;16.10;99.90;;;;;;5097361;28;19977;-69
2023/05/21 09:46:56;;;;;;;;;;;15.70;99.90;;;;;;5097208;28;19919;-69
2023/05/21 09:49:23;;;;;;;;;;;16.20;99.90;;;;;;5097842;28;19926;-68
2023/05/21 09:51:49;;;;;;;;;;;16.10;99.90;;;;;;5097559;28;19927;-71
2023/05/21 09:54:14;;;;;;;;;;;16.00;99.90;;;;;;5098146;28;19919;-69
2023/05/21 09:56:40;;;;;;;;;;;16.40;99.90;;;;;;5097516;28;19942;-68
2023/05/21 09:59:06;;;;;;;;;;;16.40;99.90;;;;;;5097516;28;19990;-68
2023/05/21 10:01:34;;;;;;;;;;;16.40;99.90;;;;;;5097576;28;19920;-73
2023/05/21 10:04:01;;;;;;;;;;;16.40;99.90;;;;;;5097481;28;19927;-69
2023/05/21 10:06:28;;;;;;;;;;;16.50;99.90;;;;;;5097421;28;19920;-70
2023/05/21 10:08:57;;;;;;;;;;;16.70;99.90;;;;;;5097365;28;19924;-69
2023/05/21 10:11:23;;;;;;;;;;;16.40;99.90;;;;;;5097547;28;20287;-69
2023/05/21 10:13:54;;;;;;;;;;;17.00;99.90;;;;;;5097277;28;20295;-70
2023/05/21 10:16:20;;;;;;;;;;;16.60;99.90;;;;;;5097801;28;19920;-70
2023/05/21 10:18:47;;;;;;;;;;;16.80;99.90;;;;;;5079119;28;19969;-72
2023/05/21 10:21:13;;;;;;;;;;;16.40;99.90;;;;;;5097176;28;19924;-70
2023/05/21 10:23:40;;;;;;;;;;;16.80;99.90;;;;;;5095803;28;20421;-68
2023/05/21 10:26:06;;;;;;;;;;;16.40;99.90;;;;;;5096750;28;19920;-71
2023/05/21 10:28:32;;;;;;;;;;;16.90;99.90;;;;;;5096388;28;20360;-73
2023/05/21 10:30:58;;;;;;;;;;;16.60;99.90;;;;;;5096616;28;19941;-70
2023/05/21 10:33:24;;;;;;;;;;;16.50;99.90;;;;;;5078497;28;19924;-70
2023/05/21 10:35:50;;;;;;;;;;;16.90;99.90;;;;;;5097672;28;19927;-71
2023/05/21 10:38:17;;;;;;;;;;;16.70;99.90;;;;;;5078421;28;20378;-70
2023/05/21 10:40:43;;;;;;;;;;;16.50;99.90;;;;;;5096719;28;19928;-75
2023/05/21 10:43:08;;;;;;;;;;;16.80;99.90;;;;;;5096737;28;20109;-70
2023/05/21 10:45:53;;;;;;;;;;;16.80;99.90;;;;;;5079169;28;19932;-69
2023/05/21 10:48:33;;;;;;;;;;;17.00;99.90;;;;;;5096678;28;19943;-73
2023/05/21 10:51:31;;;;;;;;;;;17.40;99.90;;;;;;5095921;28;19920;-71
2023/05/21 10:54:00;;;;;;;;;;;17.40;99.90;;;;;;5051556;28;19920;-78
2023/05/21 10:56:35;;;;;;;;;;;18.00;99.90;;;;;;5096219;28;20363;-70
2023/05/21 10:59:08;;;;;;;;;;;18.00;99.90;;;;;;5096943;28;19931;-69
2023/05/21 11:01:36;;;;;;;;;;;18.20;99.90;;;;;;5097006;28;19980;-69
2023/05/21 11:04:02;;;;;;;;;;;18.50;99.90;;;;;;5078338;28;19943;-74
2023/05/21 11:06:28;;;;;;;;;;;18.10;99.90;;;;;;5096800;28;19927;-73
2023/05/21 11:08:54;;;;;;;;;;;17.80;99.90;;;;;;5078720;28;19924;-72
2023/05/21 11:11:41;;;;;;;;;;;17.60;99.90;;;;;;5077972;28;19920;-77
2023/05/21 11:14:31;;;;;;;;;;;17.50;99.90;;;;;;5078826;28;20312;-71
2023/05/21 11:17:08;;;;;;;;;;;17.40;99.90;;;;;;5086650;28;20411;-73
2023/05/21 11:19:38;;;;;;;;;;;17.60;99.90;;;;;;5061890;28;19923;-76
2023/05/21 11:22:20;;;;;;;;;;;17.70;99.90;;;;;;5096021;28;19920;-70
2023/05/21 11:24:45;;;;;;;;;;;18.40;99.90;;;;;;5095997;28;19920;-71
2023/05/21 11:27:11;;;;;;;;;;;18.40;99.90;;;;;;5095856;28;19920;-75
2023/05/21 11:29:43;;;;;;;;;;;18.70;99.90;;;;;;5095602;28;19920;-74
2023/05/21 11:32:10;;;;;;;;;;;18.30;99.90;;;;;;5095463;28;20384;-79
2023/05/21 11:34:39;;;;;;;;;;;18.40;99.90;;;;;;5095467;28;20383;-73
2023/05/21 11:37:14;;;;;;;;;;;18.60;99.90;;;;;;5095385;28;20391;-71
2023/05/21 11:39:40;;;;;;;;;;;18.80;99.90;;;;;;5095633;28;19920;-72
2023/05/21 11:42:05;;;;;;;;;;;18.80;99.90;;;;;;5095594;28;19920;-74
2023/05/21 11:44:47;;;;;;;;;;;18.80;99.90;;;;;;5095535;28;20003;-74
2023/05/21 11:47:16;;;;;;;;;;;18.80;99.90;;;;;;5077511;28;19920;-75
2023/05/21 11:49:42;;;;;;;;;;;18.80;99.90;;;;;;5077264;28;19927;-70
2023/05/21 11:52:09;;;;;;;;;;;19.10;99.90;;;;;;5095314;28;20007;-70
2023/05/21 11:54:39;;;;;;;;;;;19.10;99.90;;;;;;5095328;28;19920;-68
2023/05/21 11:57:06;;;;;;;;;;;19.40;99.90;;;;;;5095290;28;19920;-71
2023/05/21 11:59:33;;;;;;;;;;;19.20;99.90;;;;;;5095269;28;19981;-70
2023/05/21 12:01:58;;;;;;;;;;;18.70;99.90;;;;;;5095192;28;19923;-73
2023/05/21 12:04:30;;;;;;;;;;;19.10;99.90;;;;;;5095550;28;20268;-70
2023/05/21 12:06:59;;;;;;;;;;;18.90;99.90;;;;;;5095197;28;19920;-72
2023/05/21 12:09:24;;;;;;;;;;;19.00;99.90;;;;;;5076972;28;19924;-69
2023/05/21 12:11:50;;;;;;;;;;;18.80;99.90;;;;;;5094967;28;19920;-67
2023/05/21 12:14:16;;;;;;;;;;;19.00;99.90;;;;;;5095176;28;19995;-75
2023/05/21 12:16:42;;;;;;;;;;;18.70;99.90;;;;;;5094936;28;20344;-70
2023/05/21 12:19:08;;;;;;;;;;;18.80;99.90;;;;;;5094879;28;20003;-71
2023/05/21 12:21:34;;;;;;;;;;;18.60;99.90;;;;;;5094883;28;20104;-73
2023/05/21 12:23:59;;;;;;;;;;;18.50;99.90;;;;;;5094732;28;20356;-69
2023/05/21 12:26:25;;;;;;;;;;;19.00;99.90;;;;;;5094791;28;19920;-71
2023/05/21 12:28:52;;;;;;;;;;;19.10;99.90;;;;;;5095243;28;19930;-64
2023/05/21 12:31:18;;;;;;;;;;;19.10;99.90;;;;;;5094548;28;19926;-71
2023/05/21 12:33:46;;;;;;;;;;;18.90;99.90;;;;;;5094352;28;20309;-69
2023/05/21 12:36:20;;;;;;;;;;;19.00;99.90;;;;;;5095118;28;19927;-73
2023/05/21 12:38:46;;;;;;;;;;;18.90;99.90;;;;;;5094911;28;20358;-73
2023/05/21 12:41:12;;;;;;;;;;;18.50;99.90;;;;;;5094420;28;19920;-78
2023/05/21 12:43:37;;;;;;;;;;;18.60;99.90;;;;;;5095209;28;19958;-66
2023/05/21 12:46:03;;;;;;;;;;;18.60;99.90;;;;;;5094706;28;19919;-69
2023/05/21 12:48:29;;;;;;;;;;;18.30;99.90;;;;;;5094377;28;19924;-70
2023/05/21 12:50:57;;;;;;;;;;;18.50;99.90;;;;;;5076120;28;20283;-70
2023/05/21 12:53:23;;;;;;;;;;;18.60;99.90;;;;;;5094306;28;20022;-71
2023/05/21 12:55:49;;;;;;;;;;;18.80;99.90;;;;;;5094154;28;19920;-69
2023/05/21 12:58:15;;;;;;;;;;;18.60;99.90;;;;;;5076147;28;19924;-72
2023/05/21 13:00:42;;;;;;;;;;;18.40;99.90;;;;;;5093864;28;20315;-70
2023/05/21 13:03:08;;;;;;;;;;;18.60;99.90;;;;;;5094615;28;19920;-70
2023/05/21 13:05:34;;;;;;;;;;;18.70;99.90;;;;;;5076367;28;20031;-69
2023/05/21 13:07:59;;;;;;;;;;;18.40;99.90;;;;;;5094098;28;20363;-72
2023/05/21 13:10:25;;;;;;;;;;;18.50;99.90;;;;;;5076196;28;19920;-69
2023/05/21 13:12:51;;;;;;;;;;;18.70;99.90;;;;;;5093684;28;19920;-72
2023/05/21 13:15:16;;;;;;;;;;;18.80;99.90;;;;;;5093967;28;19920;-71
2023/05/21 13:17:42;;;;;;;;;;;19.00;99.90;;;;;;5076147;28;20285;-72
2023/05/21 13:20:08;;;;;;;;;;;18.80;99.90;;;;;;5094734;28;19920;-68
2023/05/21 13:22:35;;;;;;;;;;;18.90;99.90;;;;;;5093866;28;19978;-67
2023/05/21 13:25:01;;;;;;;;;;;19.30;99.90;;;;;;5094673;28;20321;-68
2023/05/21 13:27:27;;;;;;;;;;;19.30;99.90;;;;;;5093929;28;19943;-68
2023/05/21 13:29:53;;;;;;;;;;;19.50;99.90;;;;;;5094085;28;20352;-70
2023/05/21 13:32:18;;;;;;;;;;;19.60;99.90;;;;;;5093719;28;19920;-68
2023/05/21 13:34:44;;;;;;;;;;;19.80;99.90;;;;;;5094348;28;19967;-67
2023/05/21 13:37:09;;;;;;;;;;;19.50;99.90;;;;;;5075915;28;19920;-69
2023/05/21 13:39:35;;;;;;;;;;;19.70;99.90;;;;;;5094192;28;20355;-69
2023/05/21 13:42:01;;;;;;;;;;;19.50;99.90;;;;;;5093685;28;19919;-69
2023/05/21 13:44:26;;;;;;;;;;;19.50;99.90;;;;;;5093363;28;19920;-69
2023/05/21 13:46:52;;;;;;;;;;;19.50;99.90;;;;;;5059281;28;19926;-70
2023/05/21 13:49:17;;;;;;;;;;;19.70;99.90;;;;;;5075587;28;20320;-71
2023/05/21 13:51:43;;;;;;;;;;;19.70;99.90;;;;;;5059198;28;19920;-70
2023/05/21 13:54:08;;;;;;;;;;;19.90;99.90;;;;;;5093590;28;19927;-69
2023/05/21 13:56:34;;;;;;;;;;;19.90;99.90;;;;;;5093554;28;19924;-69
2023/05/21 13:59:00;;;;;;;;;;;20.20;99.90;;;;;;5093548;28;19943;-72
2023/05/21 14:01:26;;;;;;;;;;;19.80;99.90;;;;;;5093581;28;19920;-69
2023/05/21 14:03:51;;;;;;;;;;;20.00;99.90;;;;;;5093239;28;19965;-68
2023/05/21 14:06:17;;;;;;;;;;;20.30;99.90;;;;;;5093462;28;19920;-67
2023/05/21 14:08:43;;;;;;;;;;;20.50;99.90;;;;;;5075640;28;19924;-67
2023/05/21 14:11:08;;;;;;;;;;;20.20;99.90;;;;;;5093888;28;19927;-69
2023/05/21 14:13:34;;;;;;;;;;;20.70;99.90;;;;;;5093440;28;19924;-67